Terminal Aerodrome Forecast
Issued by NWS Green Bay, WI

Home | Current Version | Previous Version | Text Only | Print | Product List | Glossary On
Versions: 1 2 3 4 5 6 7 8 9 10 11 12 13 14 15 16 17 18 19 20 21 22 23 24 25 26 27 28 29 30 31 32 33
000
FTUS43 KGRB 262300
TAFGRB
TAF
KGRB 262340Z 2700/2724 14006KT 6SM -SN SCT018 OVC060
      TEMPO 2700/2703 2SM -SHSN BKN018
     FM270300 11005KT 4SM -SN SCT009 OVC018
      TEMPO 2703/2706 1SM -SHSN BKN009
     FM270800 07005KT 6SM -SN SCT007 OVC012
     FM271100 02004KT P6SM -SN OVC018
     FM271500 05005KT P6SM SCT025 BKN035=

USA.gov is the U.S. government's official web portal to all federal, state and local government web resources and services.